createdAt,value
2018-12-15T00:00:33.926Z,101868.04
2018-12-15T00:03:01.358Z,101872.32
2018-12-15T00:05:28.758Z,101876.63
2018-12-15T00:07:56.175Z,101875.28
2018-12-15T00:10:23.566Z,101873.99
2018-12-15T00:12:50.993Z,101874.38
2018-12-15T00:15:18.478Z,101881.27
2018-12-15T00:17:45.887Z,101879.61
2018-12-15T00:20:13.279Z,101880.52
2018-12-15T00:22:40.742Z,101873.22
2018-12-15T00:25:08.191Z,101872.34
2018-12-15T00:27:35.618Z,101861.92
2018-12-15T00:30:04.841Z,101865.31
2018-12-15T00:32:32.274Z,101867.42
2018-12-15T00:34:59.666Z,101864.09
2018-12-15T00:37:27.278Z,101862.80
2018-12-15T00:39:54.738Z,101861.05
2018-12-15T00:42:25.929Z,101872.77
2018-12-15T00:44:53.351Z,101874.11
2018-12-15T00:47:20.913Z,101880.21
2018-12-15T00:49:48.295Z,101881.92
2018-12-15T00:52:15.723Z,101891.00
2018-12-15T00:54:43.126Z,101884.48
2018-12-15T00:57:10.526Z,101884.52
2018-12-15T00:59:37.987Z,101882.38
2018-12-15T01:02:05.413Z,101883.66
2018-12-15T01:04:32.901Z,101890.60
2018-12-15T01:07:00.295Z,101887.92
2018-12-15T01:09:27.715Z,101894.02
2018-12-15T01:11:55.161Z,101899.20
2018-12-15T01:14:22.622Z,101896.59
2018-12-15T01:16:50.015Z,101902.60
2018-12-15T01:19:17.626Z,101901.28
2018-12-15T01:21:45.032Z,101906.09
2018-12-15T01:24:12.428Z,101899.25
2018-12-15T01:26:39.818Z,101906.16
2018-12-15T01:29:07.210Z,101902.73
2018-12-15T01:31:34.602Z,101906.67
2018-12-15T01:34:02.761Z,101901.86
2018-12-15T01:36:30.241Z,101900.55
2018-12-15T01:38:57.622Z,101909.61
2018-12-15T01:41:25.014Z,101913.98
2018-12-15T01:43:52.419Z,101908.75
2018-12-15T01:46:19.814Z,101913.56
2018-12-15T01:48:47.197Z,101913.14
2018-12-15T01:51:14.662Z,101915.77
2018-12-15T01:53:42.063Z,101916.19
2018-12-15T01:56:09.450Z,101917.08
2018-12-15T01:58:36.839Z,101913.61
2018-12-15T02:01:04.230Z,101917.45
2018-12-15T02:03:31.653Z,101913.11
2018-12-15T02:05:59.123Z,101914.80
2018-12-15T02:08:26.522Z,101913.95
2018-12-15T02:10:53.918Z,101906.09
2018-12-15T02:13:21.382Z,101913.50
2018-12-15T02:15:48.844Z,101910.94
2018-12-15T02:18:16.231Z,101919.19
2018-12-15T02:20:43.659Z,101916.58
2018-12-15T02:23:11.110Z,101914.87
2018-12-15T02:25:38.657Z,101920.91
2018-12-15T02:28:06.127Z,101917.02
2018-12-15T02:30:33.524Z,101923.14
2018-12-15T02:33:00.934Z,101915.77
2018-12-15T02:35:28.402Z,101916.14
2018-12-15T02:37:55.787Z,101921.78
2018-12-15T02:40:23.204Z,101917.87
2018-12-15T02:42:50.654Z,101921.35
2018-12-15T02:45:18.110Z,101917.42
2018-12-15T02:47:45.571Z,101915.65
2018-12-15T02:50:12.959Z,101916.00
2018-12-15T02:52:40.450Z,101913.89
2018-12-15T02:55:07.842Z,101911.30
2018-12-15T02:57:35.395Z,101911.31
2018-12-15T03:00:03.064Z,101913.82
2018-12-15T03:02:30.519Z,101912.53
2018-12-15T03:04:57.982Z,101910.89
2018-12-15T03:07:25.432Z,101909.17
2018-12-15T03:09:52.812Z,101905.73
2018-12-15T03:12:20.251Z,101911.76
2018-12-15T03:14:47.640Z,101916.52
2018-12-15T03:17:15.121Z,101908.77
2018-12-15T03:19:42.612Z,101914.85
2018-12-15T03:22:10.177Z,101915.28
2018-12-15T03:24:37.730Z,101911.81
2018-12-15T03:27:05.178Z,101913.95
2018-12-15T03:29:32.585Z,101911.36
2018-12-15T03:32:00.098Z,101911.83
2018-12-15T03:34:27.673Z,101906.17
2018-12-15T03:36:55.218Z,101909.27
2018-12-15T03:39:22.914Z,101911.38
2018-12-15T03:41:50.311Z,101910.10
2018-12-15T03:44:17.698Z,101910.56
2018-12-15T03:46:45.152Z,101913.63
2018-12-15T03:49:12.576Z,101908.84
2018-12-15T03:51:40.038Z,101917.52
2018-12-15T03:54:07.431Z,101912.73
2018-12-15T03:56:34.998Z,101918.73
2018-12-15T03:59:02.479Z,101910.09
2018-12-15T04:01:29.998Z,101917.08
2018-12-15T04:03:57.548Z,101907.94
2018-12-15T04:06:25.015Z,101907.93
2018-12-15T04:08:52.404Z,101913.92
2018-12-15T04:11:19.918Z,101912.22
2018-12-15T04:13:47.378Z,101906.95
2018-12-15T04:16:14.827Z,101911.65
2018-12-15T04:18:42.286Z,101922.13
2018-12-15T04:21:09.747Z,101921.27
2018-12-15T04:23:37.142Z,101926.94
2018-12-15T04:26:04.555Z,101920.77
2018-12-15T04:28:32.020Z,101925.97
2018-12-15T04:30:59.482Z,101924.61
2018-12-15T04:33:26.927Z,101921.63
2018-12-15T04:35:54.394Z,101923.88
2018-12-15T04:38:21.844Z,101918.27
2018-12-15T04:40:49.303Z,101919.53
2018-12-15T04:43:16.754Z,101917.78
2018-12-15T04:45:44.222Z,101927.41
2018-12-15T04:48:11.730Z,101924.80
2018-12-15T04:50:39.226Z,101928.23
2018-12-15T04:53:06.690Z,101928.60
2018-12-15T04:55:34.247Z,101921.73
2018-12-15T04:58:01.750Z,101918.25
2018-12-15T05:00:29.263Z,101914.83
2018-12-15T05:02:56.719Z,101920.50
2018-12-15T05:05:24.175Z,101923.95
2018-12-15T05:07:52.252Z,101924.36
2018-12-15T05:10:19.641Z,101919.62
2018-12-15T05:12:47.026Z,101921.73
2018-12-15T05:15:14.513Z,101923.44
2018-12-15T05:17:41.895Z,101921.77
2018-12-15T05:20:09.317Z,101915.69
2018-12-15T05:22:36.800Z,101912.64
2018-12-15T05:25:05.079Z,101916.16
2018-12-15T05:27:32.466Z,101916.09
2018-12-15T05:29:59.866Z,101917.42
2018-12-15T05:32:27.343Z,101907.47
2018-12-15T05:34:54.726Z,101918.28
2018-12-15T05:37:22.123Z,101916.58
2018-12-15T05:39:49.588Z,101924.00
2018-12-15T05:42:17.053Z,101917.97
2018-12-15T05:44:44.457Z,101921.44
2018-12-15T05:47:11.854Z,101919.71
2018-12-15T05:49:39.321Z,101923.56
2018-12-15T05:52:06.878Z,101918.81
2018-12-15T05:54:34.266Z,101927.06
2018-12-15T05:57:01.662Z,101931.37
2018-12-15T05:59:29.048Z,101931.34
2018-12-15T06:01:56.735Z,101930.05
2018-12-15T06:04:24.130Z,101922.69
2018-12-15T06:06:51.519Z,101922.66
2018-12-15T06:09:18.903Z,101922.23
2018-12-15T06:11:46.297Z,101925.27
2018-12-15T06:14:13.690Z,101924.83
2018-12-15T06:16:41.135Z,101922.30
2018-12-15T06:19:08.590Z,101923.59
2018-12-15T06:21:36.050Z,101930.92
2018-12-15T06:24:03.435Z,101929.59
2018-12-15T06:26:30.869Z,101930.88
2018-12-15T06:28:58.330Z,101930.92
2018-12-15T06:31:25.770Z,101930.02
2018-12-15T06:33:53.230Z,101929.65
2018-12-15T06:36:20.630Z,101929.23
2018-12-15T06:38:48.037Z,101929.23
2018-12-15T06:41:15.434Z,101930.50
2018-12-15T06:43:43.137Z,101926.66
2018-12-15T06:46:10.530Z,101918.84
2018-12-15T06:48:38.344Z,101919.72
2018-12-15T06:51:05.937Z,101924.03
2018-12-15T06:53:33.389Z,101927.94
2018-12-15T06:56:00.791Z,101928.78
2018-12-15T06:58:28.202Z,101929.68
2018-12-15T07:00:55.603Z,101927.09
2018-12-15T07:03:23.014Z,101928.84
2018-12-15T07:05:50.438Z,101922.36
2018-12-15T07:08:17.878Z,101922.77
2018-12-15T07:10:45.292Z,101925.37
2018-12-15T07:13:12.758Z,101920.17
2018-12-15T07:15:40.302Z,101929.30
2018-12-15T07:18:07.757Z,101925.40
2018-12-15T07:20:35.155Z,101929.30
2018-12-15T07:23:02.575Z,101930.59
2018-12-15T07:25:29.966Z,101929.70
2018-12-15T07:27:57.382Z,101930.14
2018-12-15T07:30:24.978Z,101926.70
2018-12-15T07:32:52.399Z,101932.77
2018-12-15T07:35:19.862Z,101930.14
2018-12-15T07:37:47.305Z,101937.97
2018-12-15T07:40:14.762Z,101935.36
2018-12-15T07:42:42.226Z,101937.09
2018-12-15T07:45:09.739Z,101935.35
2018-12-15T07:47:37.145Z,101940.55
2018-12-15T07:50:04.742Z,101928.42
2018-12-15T07:52:32.150Z,101926.24
2018-12-15T07:54:59.539Z,101925.40
2018-12-15T07:57:26.939Z,101926.70
2018-12-15T07:59:54.318Z,101928.00
2018-12-15T08:02:21.778Z,101929.72
2018-12-15T08:04:49.234Z,101930.14
2018-12-15T08:07:16.638Z,101934.92
2018-12-15T08:09:44.042Z,101934.50
2018-12-15T08:12:17.534Z,101931.87
2018-12-15T08:14:44.939Z,101931.47
2018-12-15T08:17:12.350Z,101932.32
2018-12-15T08:19:39.735Z,101931.45
2018-12-15T08:22:07.169Z,101935.34
2018-12-15T08:24:34.558Z,101941.00
2018-12-15T08:27:01.950Z,101935.79
2018-12-15T08:29:29.346Z,101943.60
2018-12-15T08:31:56.742Z,101949.22
2018-12-15T08:34:24.145Z,101940.12
2018-12-15T08:36:51.598Z,101946.17
2018-12-15T08:39:19.057Z,101949.61
2018-12-15T08:41:46.513Z,101948.77
2018-12-15T08:44:13.946Z,101948.31
2018-12-15T08:46:41.420Z,101947.91
2018-12-15T08:49:08.802Z,101950.95
2018-12-15T08:51:36.234Z,101947.03
2018-12-15T08:54:03.728Z,101945.33
2018-12-15T08:56:31.154Z,101956.59
2018-12-15T08:58:58.698Z,101952.70
2018-12-15T09:01:26.091Z,101951.41
2018-12-15T09:03:53.499Z,101952.25
2018-12-15T09:06:20.891Z,101949.64
2018-12-15T09:08:48.280Z,101956.58
2018-12-15T09:11:15.683Z,101953.97
2018-12-15T09:13:43.145Z,101950.97
2018-12-15T09:16:10.535Z,101955.72
2018-12-15T09:18:37.938Z,101958.78
2018-12-15T09:21:05.406Z,101961.78
2018-12-15T09:23:32.816Z,101966.99
2018-12-15T09:26:00.209Z,101959.17
2018-12-15T09:28:27.685Z,101967.42
2018-12-15T09:30:55.081Z,101953.97
2018-12-15T09:33:22.526Z,101960.05
2018-12-15T09:35:49.954Z,101962.66
2018-12-15T09:38:17.398Z,101958.74
2018-12-15T09:40:44.786Z,101963.09
2018-12-15T09:43:12.186Z,101961.78
2018-12-15T09:45:39.675Z,101957.02
2018-12-15T09:48:07.061Z,101957.86
2018-12-15T09:50:34.500Z,101958.75
2018-12-15T09:53:01.941Z,101953.48
2018-12-15T09:55:29.370Z,101955.66
2018-12-15T09:57:56.924Z,101952.20
2018-12-15T10:00:24.324Z,101950.49
2018-12-15T10:02:51.777Z,101954.39
2018-12-15T10:05:19.242Z,101952.66
2018-12-15T10:07:46.656Z,101952.66
2018-12-15T10:10:14.094Z,101957.42
2018-12-15T10:12:41.514Z,101953.52
2018-12-15T10:15:08.954Z,101952.64
2018-12-15T10:17:36.341Z,101946.07
2018-12-15T10:20:05.196Z,101943.05
2018-12-15T10:22:32.578Z,101941.78
2018-12-15T10:24:59.990Z,101939.61
2018-12-15T10:27:27.662Z,101936.13
2018-12-15T10:30:00.829Z,101928.28
2018-12-15T10:32:33.968Z,101930.42
2018-12-15T10:35:01.353Z,101929.56
2018-12-15T10:37:28.763Z,101917.41
2018-12-15T10:39:56.182Z,101918.76
2018-12-15T10:42:23.571Z,101913.95
2018-12-15T10:44:51.018Z,101906.61
2018-12-15T10:47:18.483Z,101903.58
2018-12-15T10:49:45.968Z,101904.44
2018-12-15T10:52:13.423Z,101906.12
2018-12-15T10:54:40.862Z,101903.08
2018-12-15T10:57:08.322Z,101896.05
2018-12-15T10:59:35.714Z,101896.06
2018-12-15T11:02:03.223Z,101889.62
2018-12-15T11:04:30.606Z,101887.05
2018-12-15T11:06:58.031Z,101890.05
2018-12-15T11:09:25.485Z,101889.58
2018-12-15T11:11:52.962Z,101891.30
2018-12-15T11:14:20.407Z,101890.42
2018-12-15T11:16:47.970Z,101885.63
2018-12-15T11:19:15.326Z,101885.67
2018-12-15T11:21:42.726Z,101874.32
2018-12-15T11:24:10.118Z,101876.51
2018-12-15T11:26:37.510Z,101869.59
2018-12-15T11:29:04.898Z,101879.53
2018-12-15T11:31:32.295Z,101873.47
2018-12-15T11:33:59.679Z,101866.05
2018-12-15T11:36:27.087Z,101873.00
2018-12-15T11:38:54.463Z,101863.06
2018-12-15T11:41:21.858Z,101860.09
2018-12-15T11:43:49.254Z,101860.58
2018-12-15T11:46:16.645Z,101855.38
2018-12-15T11:48:44.185Z,101853.70
2018-12-15T11:51:11.629Z,101849.80
2018-12-15T11:53:39.193Z,101849.75
2018-12-15T11:56:06.673Z,101850.52
2018-12-15T11:58:34.122Z,101847.50
2018-12-15T12:01:01.527Z,101845.25
2018-12-15T12:03:28.929Z,101847.81
2018-12-15T12:05:56.383Z,101844.30
2018-12-15T12:08:23.843Z,101839.63
2018-12-15T12:10:51.286Z,101838.34
2018-12-15T12:13:18.749Z,101841.75
2018-12-15T12:15:46.212Z,101835.78
2018-12-15T12:18:13.662Z,101839.73
2018-12-15T12:20:41.414Z,101832.36
2018-12-15T12:23:08.878Z,101827.65
2018-12-15T12:25:36.326Z,101820.22
2018-12-15T12:28:03.769Z,101818.48
2018-12-15T12:30:31.255Z,101815.06
2018-12-15T12:32:59.407Z,101811.19
2018-12-15T12:35:26.974Z,101805.92
2018-12-15T12:37:54.370Z,101809.87
2018-12-15T12:40:21.795Z,101812.87
2018-12-15T12:42:49.275Z,101808.09
2018-12-15T12:45:16.719Z,101812.39
2018-12-15T12:47:44.114Z,101811.12
2018-12-15T12:50:11.502Z,101807.64
2018-12-15T12:52:38.993Z,101809.83
2018-12-15T12:55:06.388Z,101804.64
2018-12-15T12:57:33.781Z,101806.41
2018-12-15T13:00:01.170Z,101807.76
2018-12-15T13:02:28.608Z,101803.85
2018-12-15T13:04:56.127Z,101798.22
2018-12-15T13:07:23.574Z,101799.94
2018-12-15T13:09:50.975Z,101799.47
2018-12-15T13:12:18.426Z,101794.26
2018-12-15T13:14:45.819Z,101794.70
2018-12-15T13:17:13.220Z,101792.53
2018-12-15T13:19:40.602Z,101798.18
2018-12-15T13:22:08.002Z,101791.19
2018-12-15T13:24:35.390Z,101790.79
2018-12-15T13:27:02.791Z,101781.61
2018-12-15T13:29:30.223Z,101789.02
2018-12-15T13:31:57.671Z,101788.12
2018-12-15T13:34:25.131Z,101782.14
2018-12-15T13:36:52.695Z,101784.72
2018-12-15T13:39:20.150Z,101782.13
2018-12-15T13:41:47.607Z,101778.66
2018-12-15T13:44:15.016Z,101774.33
2018-12-15T13:46:42.399Z,101773.13
2018-12-15T13:49:09.871Z,101769.69
2018-12-15T13:51:37.271Z,101771.85
2018-12-15T13:54:04.802Z,101762.78
2018-12-15T13:56:32.240Z,101766.70
2018-12-15T13:58:59.706Z,101769.77
2018-12-15T14:01:27.162Z,101764.15
2018-12-15T14:03:54.620Z,101758.95
2018-12-15T14:06:22.054Z,101762.02
2018-12-15T14:08:49.535Z,101757.26
2018-12-15T14:11:16.991Z,101762.45
2018-12-15T14:13:44.378Z,101756.35
2018-12-15T14:16:11.910Z,101760.23
2018-12-15T14:18:39.354Z,101748.95
2018-12-15T14:21:06.815Z,101743.27
2018-12-15T14:23:34.273Z,101741.07
2018-12-15T14:26:03.646Z,101745.02
2018-12-15T14:28:31.041Z,101737.73
2018-12-15T14:30:58.518Z,101733.88
2018-12-15T14:33:25.919Z,101739.08
2018-12-15T14:35:53.366Z,101738.24
2018-12-15T14:38:20.771Z,101735.18
2018-12-15T14:40:48.167Z,101736.51
2018-12-15T14:43:15.554Z,101736.48
2018-12-15T14:45:42.947Z,101732.95
2018-12-15T14:48:10.379Z,101733.80
2018-12-15T14:50:37.771Z,101723.88
2018-12-15T14:53:05.286Z,101724.73
2018-12-15T14:55:32.746Z,101725.59
2018-12-15T14:58:00.207Z,101722.14
2018-12-15T15:00:27.608Z,101714.38
2018-12-15T15:02:55.009Z,101711.70
2018-12-15T15:05:22.473Z,101709.11
2018-12-15T15:07:49.864Z,101706.53
2018-12-15T15:10:17.378Z,101700.98
2018-12-15T15:12:44.861Z,101700.52
2018-12-15T15:15:12.253Z,101703.56
2018-12-15T15:17:39.643Z,101698.34
2018-12-15T15:20:08.910Z,101690.58
2018-12-15T15:22:36.410Z,101693.19
2018-12-15T15:25:05.094Z,101684.52
2018-12-15T15:27:32.617Z,101684.54
2018-12-15T15:29:59.994Z,101681.95
2018-12-15T15:32:27.386Z,101687.57
2018-12-15T15:34:54.783Z,101686.70
2018-12-15T15:37:22.173Z,101690.15
2018-12-15T15:39:49.576Z,101678.92
2018-12-15T15:42:17.016Z,101674.55
2018-12-15T15:44:44.543Z,101673.28
2018-12-15T15:47:11.999Z,101662.92
2018-12-15T15:49:39.450Z,101659.86
2018-12-15T15:52:06.906Z,101668.14
2018-12-15T15:54:34.587Z,101656.84
2018-12-15T15:57:02.029Z,101658.14
2018-12-15T15:59:29.498Z,101649.50
2018-12-15T16:01:56.942Z,101645.12
2018-12-15T16:04:24.402Z,101647.29
2018-12-15T16:06:51.880Z,101644.69
2018-12-15T16:09:19.275Z,101635.59
2018-12-15T16:11:46.658Z,101638.22
2018-12-15T16:14:14.126Z,101630.87
2018-12-15T16:16:41.518Z,101620.48
2018-12-15T16:19:08.934Z,101616.57
2018-12-15T16:21:36.322Z,101616.14
2018-12-15T16:24:03.760Z,101607.92
2018-12-15T16:26:31.139Z,101618.28
2018-12-15T16:28:58.530Z,101608.73
2018-12-15T16:31:25.935Z,101609.58
2018-12-15T16:33:53.480Z,101606.13
2018-12-15T16:36:20.930Z,101594.41
2018-12-15T16:38:48.323Z,101590.95
2018-12-15T16:41:15.723Z,101580.55
2018-12-15T16:43:43.198Z,101582.73
2018-12-15T16:46:10.606Z,101579.27
2018-12-15T16:48:38.000Z,101573.09
2018-12-15T16:51:05.471Z,101564.97
2018-12-15T16:53:32.864Z,101566.36
2018-12-15T16:56:00.258Z,101555.94
2018-12-15T16:58:27.719Z,101562.84
2018-12-15T17:00:55.190Z,101566.75
2018-12-15T17:03:22.646Z,101561.53
2018-12-15T17:05:50.102Z,101557.23
2018-12-15T17:08:17.562Z,101556.78
2018-12-15T17:10:45.013Z,101552.05
2018-12-15T17:13:12.414Z,101553.38
2018-12-15T17:15:39.827Z,101561.59
2018-12-15T17:18:07.291Z,101561.12
2018-12-15T17:20:34.679Z,101550.33
2018-12-15T17:23:02.094Z,101567.25
2018-12-15T17:25:29.551Z,101546.50
2018-12-15T17:27:56.930Z,101541.69
2018-12-15T17:30:24.362Z,101536.49
2018-12-15T17:32:51.822Z,101538.22
2018-12-15T17:35:19.222Z,101531.28
2018-12-15T17:37:46.635Z,101521.36
2018-12-15T17:40:14.090Z,101508.81
2018-12-15T17:42:41.539Z,101516.16
2018-12-15T17:45:09.123Z,101509.23
2018-12-15T17:47:36.564Z,101510.52
2018-12-15T17:50:04.471Z,101506.59
2018-12-15T17:52:31.878Z,101502.70
2018-12-15T17:54:59.342Z,101502.30
2018-12-15T17:57:26.742Z,101491.97
2018-12-15T17:59:54.137Z,101492.45
2018-12-15T18:02:21.607Z,101489.01
2018-12-15T18:04:49.087Z,101491.98
2018-12-15T18:07:16.486Z,101485.08
2018-12-15T18:09:43.969Z,101482.48
2018-12-15T18:12:11.434Z,101475.97
2018-12-15T18:14:38.850Z,101483.77
2018-12-15T18:17:06.246Z,101475.13
2018-12-15T18:19:33.842Z,101470.78
2018-12-15T18:22:01.268Z,101463.80
2018-12-15T18:24:28.654Z,101470.70
2018-12-15T18:26:56.049Z,101462.52
2018-12-15T18:29:23.434Z,101456.48
2018-12-15T18:31:50.886Z,101457.31
2018-12-15T18:34:18.342Z,101454.68
2018-12-15T18:36:45.805Z,101454.27
2018-12-15T18:39:13.211Z,101444.28
2018-12-15T18:41:40.614Z,101434.80
2018-12-15T18:44:08.115Z,101429.19
2018-12-15T18:46:35.526Z,101424.00
2018-12-15T18:49:02.979Z,101423.98
2018-12-15T18:51:30.543Z,101422.73
2018-12-15T18:53:58.052Z,101424.02
2018-12-15T18:56:25.527Z,101415.81
2018-12-15T18:58:53.318Z,101408.41
2018-12-15T19:01:20.839Z,101416.62
2018-12-15T19:03:48.349Z,101410.10
2018-12-15T19:06:15.744Z,101409.24
2018-12-15T19:08:43.142Z,101406.30
2018-12-15T19:11:10.549Z,101389.81
2018-12-15T19:13:38.075Z,101395.42
2018-12-15T19:16:05.532Z,101391.11
2018-12-15T19:18:32.969Z,101381.16
2018-12-15T19:21:00.467Z,101376.41
2018-12-15T19:23:27.859Z,101373.45
2018-12-15T19:25:55.351Z,101379.91
2018-12-15T19:28:22.807Z,101375.11
2018-12-15T19:30:50.197Z,101384.25
2018-12-15T19:33:17.629Z,101376.44
2018-12-15T19:35:45.073Z,101375.59
2018-12-15T19:38:12.522Z,101373.81
2018-12-15T19:40:39.929Z,101366.02
2018-12-15T19:43:07.444Z,101360.86
2018-12-15T19:45:34.842Z,101348.70
2018-12-15T19:48:02.329Z,101348.20
2018-12-15T19:50:29.740Z,101345.98
2018-12-15T19:52:57.171Z,101343.36
2018-12-15T19:55:24.582Z,101348.61
2018-12-15T19:57:51.970Z,101341.27
2018-12-15T20:00:19.408Z,101342.20
2018-12-15T20:02:46.933Z,101340.88
2018-12-15T20:05:14.345Z,101342.67
2018-12-15T20:07:41.761Z,101333.52
2018-12-15T20:10:09.163Z,101326.12
2018-12-15T20:12:36.562Z,101320.92
2018-12-15T20:15:04.359Z,101317.97
2018-12-15T20:17:31.804Z,101305.87
2018-12-15T20:19:59.295Z,101294.25
2018-12-15T20:22:26.772Z,101306.31
2018-12-15T20:24:54.173Z,101288.17
2018-12-15T20:27:21.658Z,101295.10
2018-12-15T20:29:49.062Z,101278.66
2018-12-15T20:32:16.463Z,101287.75
2018-12-15T20:34:43.936Z,101265.23
2018-12-15T20:37:11.373Z,101262.13
2018-12-15T20:39:38.833Z,101249.14
2018-12-15T20:42:06.323Z,101244.81
2018-12-15T20:44:33.727Z,101240.50
2018-12-15T20:47:01.211Z,101240.53
2018-12-15T20:49:28.683Z,101241.42
2018-12-15T20:51:56.148Z,101233.22
2018-12-15T20:54:23.574Z,101230.22
2018-12-15T20:56:50.988Z,101226.32
2018-12-15T20:59:18.481Z,101227.17
2018-12-15T21:01:45.951Z,101220.69
2018-12-15T21:04:13.350Z,101217.23
2018-12-15T21:06:40.791Z,101219.34
2018-12-15T21:09:08.227Z,101192.94
2018-12-15T21:11:35.691Z,101199.84
2018-12-15T21:14:03.093Z,101189.48
2018-12-15T21:16:30.562Z,101187.78
2018-12-15T21:18:58.154Z,101186.86
2018-12-15T21:21:25.608Z,101188.56
2018-12-15T21:23:53.037Z,101192.05
2018-12-15T21:26:20.549Z,101187.27
2018-12-15T21:28:47.945Z,101175.13
2018-12-15T21:31:15.461Z,101181.51
2018-12-15T21:33:42.890Z,101177.16
2018-12-15T21:36:10.375Z,101183.58
2018-12-15T21:38:37.807Z,101184.47
2018-12-15T21:41:05.274Z,101174.97
2018-12-15T21:43:33.130Z,101177.93
2018-12-15T21:46:00.627Z,101177.08
2018-12-15T21:48:28.022Z,101183.13
2018-12-15T21:50:55.422Z,101163.32
2018-12-15T21:53:22.855Z,101164.26
2018-12-15T21:55:50.323Z,101168.16
2018-12-15T21:58:17.718Z,101158.66
2018-12-15T22:00:45.122Z,101168.56
2018-12-15T22:03:12.519Z,101157.72
2018-12-15T22:05:39.930Z,101160.77
2018-12-15T22:08:07.327Z,101168.92
2018-12-15T22:10:36.097Z,101155.13
2018-12-15T22:13:03.711Z,101151.19
2018-12-15T22:15:31.196Z,101154.68
2018-12-15T22:17:58.603Z,101149.08
2018-12-15T22:20:26.018Z,101136.09
2018-12-15T22:22:53.485Z,101132.20
2018-12-15T22:25:20.894Z,101122.66
2018-12-15T22:27:48.274Z,101130.36
2018-12-15T22:30:15.676Z,101128.70
2018-12-15T22:32:43.079Z,101120.55
2018-12-15T22:35:10.570Z,101116.13
2018-12-15T22:37:37.961Z,101107.97
2018-12-15T22:40:05.835Z,101089.34
2018-12-15T22:42:33.324Z,101082.89
2018-12-15T22:45:00.783Z,101076.00
2018-12-15T22:47:28.190Z,101070.00
2018-12-15T22:49:55.593Z,101064.04
2018-12-15T22:52:22.987Z,101062.38
2018-12-15T22:54:50.437Z,101052.84
2018-12-15T22:57:17.843Z,101051.95
2018-12-15T22:59:45.231Z,101041.74
2018-12-15T23:02:12.633Z,101037.89
2018-12-15T23:04:40.126Z,101035.34
2018-12-15T23:07:07.530Z,101031.52
2018-12-15T23:09:35.860Z,101016.39
2018-12-15T23:12:03.427Z,101013.84
2018-12-15T23:14:30.870Z,101012.59
2018-12-15T23:16:58.332Z,100999.17
2018-12-15T23:19:25.794Z,100991.91
2018-12-15T23:21:53.238Z,100994.14
2018-12-15T23:24:20.699Z,100989.06
2018-12-15T23:26:48.110Z,100983.95
2018-12-15T23:29:15.616Z,100974.00
2018-12-15T23:31:43.018Z,100966.21
2018-12-15T23:34:10.526Z,100970.11
2018-12-15T23:36:37.943Z,100961.14
2018-12-15T23:39:06.568Z,100957.69
2018-12-15T23:41:33.966Z,100955.06
2018-12-15T23:44:01.371Z,100952.91
2018-12-15T23:46:28.837Z,100954.20
2018-12-15T23:48:56.286Z,100962.81
2018-12-15T23:51:23.685Z,100958.58
2018-12-15T23:53:51.086Z,100948.62
2018-12-15T23:56:18.615Z,100939.21
2018-12-15T23:58:46.011Z,100933.17
